KSLR

Sulphur Springs Municipal Airport

Sulphur Springs, Texas, USA
METAR KSLR 151915Z AUTO 23009KT 10SM CLR 21/12 A2969 RMK AO2 T02070123
Observed Flight Rules
Feb-15 @ 19:15 UTC (18 minutes ago) Visual Flight Rules
Wind Visibility Clouds
230° at 9 knots 10 miles
  • Clear skies
Temperatures Readings
Current 21°C / 70°F
Dewpoint 12°C / 54°F
Humidity 57%
Altimeter 29.69" Hg
Pressure 1005.42 hPa
Elevation 149
METAR KSLR 151915Z AUTO 23009KT 10SM CLR 21/12 A2969 RMK AO2 T02070123
Observed Flight Rules
Feb-15 @ 19:15 UTC
(18 minutes ago)
VFR
Wind Visibility
230° at 9 knots 10 miles
Clouds
  • Clear skies
Temperature Dewpoint
21°C / 70°F 12°C / 54°F
Humidity Altimeter Pressure
57% 29.69" Hg 1005.42 hPa